createdAt,value
2018-05-17T00:00:36.450Z,0.00
2018-05-17T00:01:36.413Z,0.00
2018-05-17T00:02:36.346Z,0.00
2018-05-17T00:03:36.312Z,0.00
2018-05-17T00:04:36.245Z,0.00
2018-05-17T00:05:36.133Z,0.00
2018-05-17T00:06:36.116Z,0.00
2018-05-17T00:07:36.005Z,0.00
2018-05-17T00:08:35.972Z,0.00
2018-05-17T00:09:35.876Z,0.00
2018-05-17T00:10:35.838Z,0.00
2018-05-17T00:11:35.800Z,0.00
2018-05-17T00:12:35.708Z,0.00
2018-05-17T00:13:35.622Z,0.00
2018-05-17T00:14:35.584Z,0.00
2018-05-17T00:15:35.527Z,0.00
2018-05-17T00:16:35.482Z,0.00
2018-05-17T00:17:35.428Z,0.00
2018-05-17T00:18:35.343Z,0.00
2018-05-17T00:19:35.282Z,0.00
2018-05-17T00:20:35.216Z,0.00
2018-05-17T00:21:35.146Z,0.00
2018-05-17T00:22:35.052Z,0.00
2018-05-17T00:23:35.007Z,0.00
2018-05-17T00:24:34.966Z,0.00
2018-05-17T00:25:34.859Z,0.00
2018-05-17T00:26:34.798Z,0.00
2018-05-17T00:27:34.735Z,0.00
2018-05-17T00:28:34.669Z,0.00
2018-05-17T00:29:34.607Z,0.00
2018-05-17T00:30:34.555Z,0.00
2018-05-17T00:31:34.477Z,0.00
2018-05-17T00:32:34.420Z,0.00
2018-05-17T00:33:34.352Z,0.00
2018-05-17T00:34:34.302Z,0.00
2018-05-17T00:35:34.243Z,0.00
2018-05-17T00:36:34.194Z,0.00
2018-05-17T00:37:34.166Z,0.00
2018-05-17T00:38:34.056Z,0.00
2018-05-17T00:39:34.023Z,0.00
2018-05-17T00:40:33.911Z,0.00
2018-05-17T00:41:33.844Z,0.00
2018-05-17T00:42:33.810Z,0.00
2018-05-17T00:43:33.714Z,0.00
2018-05-17T00:44:33.652Z,0.00
2018-05-17T00:45:33.651Z,0.00
2018-05-17T00:46:33.531Z,0.00
2018-05-17T00:47:33.519Z,0.00
2018-05-17T00:48:33.415Z,0.00
2018-05-17T00:49:33.385Z,0.00
2018-05-17T00:50:33.319Z,0.00
2018-05-17T00:51:33.211Z,0.00
2018-05-17T00:52:33.184Z,0.00
2018-05-17T00:53:33.082Z,0.00
2018-05-17T00:54:33.021Z,0.00
2018-05-17T00:55:32.974Z,0.00
2018-05-17T00:56:32.890Z,0.00
2018-05-17T00:57:32.860Z,0.00
2018-05-17T00:58:32.807Z,0.00
2018-05-17T00:59:32.709Z,0.00
2018-05-17T01:00:32.665Z,0.00
2018-05-17T01:01:32.574Z,0.00
2018-05-17T01:02:32.565Z,0.00
2018-05-17T01:03:32.445Z,0.00
2018-05-17T01:04:32.414Z,0.00
2018-05-17T01:05:32.319Z,0.00
2018-05-17T01:06:32.270Z,0.00
2018-05-17T01:07:32.248Z,0.00
2018-05-17T01:08:32.124Z,0.00
2018-05-17T01:09:32.111Z,0.00
2018-05-17T01:10:32.005Z,0.00
2018-05-17T01:11:31.941Z,0.00
2018-05-17T01:12:31.887Z,0.00
2018-05-17T01:13:31.850Z,0.00
2018-05-17T01:14:31.777Z,0.00
2018-05-17T01:15:31.680Z,0.00
2018-05-17T01:16:31.633Z,0.00
2018-05-17T01:17:31.563Z,0.00
2018-05-17T01:18:31.496Z,0.00
2018-05-17T01:19:31.431Z,0.00
2018-05-17T01:20:31.366Z,0.00
2018-05-17T01:21:31.336Z,0.00
2018-05-17T01:22:31.304Z,0.00
2018-05-17T01:23:31.230Z,0.00
2018-05-17T01:24:31.113Z,0.00
2018-05-17T01:25:31.046Z,0.00
2018-05-17T01:26:30.988Z,0.00
2018-05-17T01:27:30.972Z,0.00
2018-05-17T01:28:30.889Z,0.00
2018-05-17T01:29:30.810Z,0.00
2018-05-17T01:30:30.765Z,0.00
2018-05-17T01:31:30.690Z,0.00
2018-05-17T01:32:30.623Z,0.00
2018-05-17T01:33:30.553Z,0.00
2018-05-17T01:34:30.526Z,0.00
2018-05-17T01:35:30.411Z,0.00
2018-05-17T01:36:30.365Z,0.00
2018-05-17T01:37:30.289Z,0.00
2018-05-17T01:38:30.219Z,0.00
2018-05-17T01:39:30.179Z,0.00
2018-05-17T01:40:30.158Z,0.00
2018-05-17T01:41:30.068Z,0.00
2018-05-17T01:42:30.024Z,0.00
2018-05-17T01:43:29.907Z,0.00
2018-05-17T01:44:29.872Z,0.00
2018-05-17T01:45:29.830Z,0.00
2018-05-17T01:46:29.709Z,0.00
2018-05-17T01:47:29.649Z,0.00
2018-05-17T01:48:29.584Z,0.00
2018-05-17T01:49:29.535Z,0.00
2018-05-17T01:50:29.572Z,0.00
2018-05-17T01:51:29.408Z,0.00
2018-05-17T01:52:29.347Z,0.00
2018-05-17T01:53:29.330Z,0.00
2018-05-17T01:54:29.239Z,0.00
2018-05-17T01:55:29.183Z,0.00
2018-05-17T01:56:29.077Z,0.00
2018-05-17T01:57:29.064Z,0.00
2018-05-17T01:58:28.952Z,0.00
2018-05-17T01:59:28.917Z,0.00
2018-05-17T02:00:28.844Z,0.00
2018-05-17T02:01:28.808Z,0.00
2018-05-17T02:02:28.734Z,0.00
2018-05-17T02:03:28.629Z,0.00
2018-05-17T02:04:28.581Z,0.00
2018-05-17T02:05:28.503Z,0.00
2018-05-17T02:06:28.458Z,0.00
2018-05-17T02:07:28.412Z,0.00
2018-05-17T02:08:28.314Z,0.00
2018-05-17T02:09:28.251Z,0.00
2018-05-17T02:10:28.239Z,0.00
2018-05-17T02:11:28.130Z,0.00
2018-05-17T02:12:28.112Z,0.00
2018-05-17T02:13:27.992Z,0.00
2018-05-17T02:14:27.976Z,0.00
2018-05-17T02:15:27.903Z,0.00
2018-05-17T02:16:27.830Z,0.00
2018-05-17T02:17:27.767Z,0.00
2018-05-17T02:18:27.678Z,0.00
2018-05-17T02:19:27.668Z,0.00
2018-05-17T02:20:27.575Z,0.00
2018-05-17T02:21:27.542Z,0.00
2018-05-17T02:22:27.483Z,0.00
2018-05-17T02:23:27.405Z,0.00
2018-05-17T02:24:27.301Z,0.00
2018-05-17T02:25:27.234Z,0.00
2018-05-17T02:26:27.217Z,0.00
2018-05-17T02:27:27.106Z,0.00
2018-05-17T02:28:27.078Z,0.00
2018-05-17T02:29:26.980Z,0.00
2018-05-17T02:30:26.965Z,0.00
2018-05-17T02:31:26.872Z,0.00
2018-05-17T02:32:26.836Z,0.00
2018-05-17T02:33:26.760Z,0.00
2018-05-17T02:34:26.659Z,0.00
2018-05-17T02:35:26.633Z,0.00
2018-05-17T02:36:26.592Z,0.00
2018-05-17T02:37:26.480Z,0.00
2018-05-17T02:38:26.447Z,0.00
2018-05-17T02:39:26.378Z,0.00
2018-05-17T02:40:26.326Z,0.00
2018-05-17T02:41:26.268Z,0.00
2018-05-17T02:42:26.187Z,0.00
2018-05-17T02:43:26.097Z,0.00
2018-05-17T02:44:26.072Z,0.00
2018-05-17T02:45:26.036Z,0.00
2018-05-17T02:46:25.901Z,0.00
2018-05-17T02:47:25.854Z,0.00
2018-05-17T02:48:25.773Z,0.00
2018-05-17T02:49:25.747Z,0.00
2018-05-17T02:50:25.644Z,0.00
2018-05-17T02:51:25.596Z,0.00
2018-05-17T02:52:25.542Z,0.00
2018-05-17T02:53:25.497Z,0.00
2018-05-17T02:54:25.392Z,0.00
2018-05-17T02:55:25.364Z,0.00
2018-05-17T02:56:25.296Z,0.00
2018-05-17T02:57:25.263Z,0.00
2018-05-17T02:58:25.171Z,0.00
2018-05-17T02:59:25.082Z,0.00
2018-05-17T03:00:25.013Z,0.00
2018-05-17T03:01:24.947Z,0.00
2018-05-17T03:02:24.881Z,0.00
2018-05-17T03:03:24.826Z,0.00
2018-05-17T03:04:24.791Z,0.00
2018-05-17T03:05:24.739Z,0.00
2018-05-17T03:06:24.629Z,0.00
2018-05-17T03:07:24.616Z,0.00
2018-05-17T03:08:24.503Z,0.00
2018-05-17T03:09:24.487Z,0.00
2018-05-17T03:10:24.430Z,0.00
2018-05-17T03:11:24.345Z,0.00
2018-05-17T03:12:24.279Z,4.00
2018-05-17T03:13:24.181Z,4.00
2018-05-17T03:14:24.162Z,0.00
2018-05-17T03:15:24.116Z,4.00
2018-05-17T03:16:23.998Z,4.00
2018-05-17T03:17:23.974Z,8.00
2018-05-17T03:18:23.868Z,4.00
2018-05-17T03:19:23.834Z,8.00
2018-05-17T03:20:23.785Z,8.00
2018-05-17T03:21:23.672Z,8.00
2018-05-17T03:22:23.611Z,8.00
2018-05-17T03:23:23.581Z,8.00
2018-05-17T03:24:23.500Z,12.00
2018-05-17T03:25:23.459Z,16.00
2018-05-17T03:26:23.405Z,12.00
2018-05-17T03:27:23.362Z,16.00
2018-05-17T03:28:23.250Z,16.00
2018-05-17T03:29:23.219Z,20.00
2018-05-17T03:30:23.133Z,20.00
2018-05-17T03:31:23.036Z,20.00
2018-05-17T03:32:22.994Z,24.00
2018-05-17T03:33:22.940Z,28.00
2018-05-17T03:34:22.889Z,28.00
2018-05-17T03:35:22.817Z,28.00
2018-05-17T03:36:22.739Z,28.00
2018-05-17T03:37:22.689Z,32.00
2018-05-17T03:38:22.598Z,32.00
2018-05-17T03:39:22.548Z,36.00
2018-05-17T03:40:22.484Z,36.00
2018-05-17T03:41:22.419Z,40.00
2018-05-17T03:42:22.336Z,36.00
2018-05-17T03:43:22.278Z,44.00
2018-05-17T03:44:22.230Z,44.00
2018-05-17T03:45:22.146Z,44.00
2018-05-17T03:46:22.083Z,48.00
2018-05-17T03:47:22.040Z,48.00
2018-05-17T03:48:21.955Z,52.00
2018-05-17T03:49:21.920Z,56.00
2018-05-17T03:50:21.873Z,60.00
2018-05-17T03:51:21.769Z,64.00
2018-05-17T03:52:21.760Z,68.00
2018-05-17T03:53:21.664Z,76.00
2018-05-17T03:54:21.575Z,88.00
2018-05-17T03:55:21.560Z,96.00
2018-05-17T03:56:21.483Z,100.00
2018-05-17T03:57:21.382Z,108.00
2018-05-17T03:58:21.357Z,120.00
2018-05-17T03:59:21.279Z,136.00
2018-05-17T04:00:21.188Z,152.00
2018-05-17T04:01:21.193Z,168.00
2018-05-17T04:02:21.066Z,184.00
2018-05-17T04:03:21.029Z,208.00
2018-05-17T04:04:20.972Z,232.00
2018-05-17T04:05:20.906Z,252.00
2018-05-17T04:06:20.827Z,272.00
2018-05-17T04:07:20.744Z,280.00
2018-05-17T04:08:20.678Z,292.00
2018-05-17T04:09:20.614Z,292.00
2018-05-17T04:10:20.585Z,300.00
2018-05-17T04:11:20.526Z,300.00
2018-05-17T04:12:20.441Z,296.00
2018-05-17T04:13:20.395Z,300.00
2018-05-17T04:14:20.356Z,316.00
2018-05-17T04:15:20.235Z,328.00
2018-05-17T04:16:20.196Z,328.00
2018-05-17T04:17:20.125Z,328.00
2018-05-17T04:18:20.089Z,328.00
2018-05-17T04:19:20.031Z,332.00
2018-05-17T04:20:19.959Z,328.00
2018-05-17T04:21:19.890Z,344.00
2018-05-17T04:22:19.790Z,352.00
2018-05-17T04:23:19.786Z,356.00
2018-05-17T04:24:19.681Z,376.00
2018-05-17T04:25:19.606Z,396.00
2018-05-17T04:26:19.584Z,428.00
2018-05-17T04:27:19.500Z,436.00
2018-05-17T04:28:19.462Z,424.00
2018-05-17T04:29:19.484Z,400.00
2018-05-17T04:30:19.322Z,384.00
2018-05-17T04:31:19.251Z,372.00
2018-05-17T04:32:19.154Z,372.00
2018-05-17T04:33:19.138Z,368.00
2018-05-17T04:34:19.027Z,344.00
2018-05-17T04:35:19.020Z,336.00
2018-05-17T04:36:18.923Z,340.00
2018-05-17T04:37:18.904Z,336.00
2018-05-17T04:38:18.774Z,332.00
2018-05-17T04:39:18.708Z,328.00
2018-05-17T04:40:18.649Z,328.00
2018-05-17T04:41:18.620Z,328.00
2018-05-17T04:42:18.554Z,324.00
2018-05-17T04:43:18.492Z,312.00
2018-05-17T04:44:18.437Z,308.00
2018-05-17T04:45:18.327Z,300.00
2018-05-17T04:46:18.279Z,296.00
2018-05-17T04:47:18.249Z,300.00
2018-05-17T04:48:18.155Z,300.00
2018-05-17T04:49:18.075Z,304.00
2018-05-17T04:50:18.039Z,308.00
2018-05-17T04:51:17.978Z,312.00
2018-05-17T04:52:17.945Z,320.00
2018-05-17T04:53:17.821Z,312.00
2018-05-17T04:54:17.810Z,308.00
2018-05-17T04:55:17.699Z,304.00
2018-05-17T04:56:17.632Z,304.00
2018-05-17T04:57:17.569Z,308.00
2018-05-17T04:58:17.504Z,304.00
2018-05-17T04:59:17.441Z,300.00
2018-05-17T05:00:17.408Z,284.00
2018-05-17T05:01:17.314Z,288.00
2018-05-17T05:02:17.259Z,284.00
2018-05-17T05:03:17.188Z,288.00
2018-05-17T05:04:17.174Z,288.00
2018-05-17T05:05:17.102Z,288.00
2018-05-17T05:06:17.029Z,288.00
2018-05-17T05:07:16.934Z,292.00
2018-05-17T05:08:16.869Z,300.00
2018-05-17T05:09:16.854Z,308.00
2018-05-17T05:10:16.781Z,312.00
2018-05-17T05:11:16.726Z,316.00
2018-05-17T05:12:16.619Z,324.00
2018-05-17T05:13:16.553Z,332.00
2018-05-17T05:14:16.489Z,332.00
2018-05-17T05:15:16.472Z,336.00
2018-05-17T05:16:16.382Z,336.00
2018-05-17T05:17:16.342Z,328.00
2018-05-17T05:18:16.240Z,332.00
2018-05-17T05:19:16.209Z,344.00
2018-05-17T05:20:16.131Z,360.00
2018-05-17T05:21:16.047Z,376.00
2018-05-17T05:22:16.041Z,392.00
2018-05-17T05:23:15.963Z,400.00
2018-05-17T05:24:15.858Z,412.00
2018-05-17T05:25:15.852Z,424.00
2018-05-17T05:26:15.744Z,436.00
2018-05-17T05:27:15.716Z,444.00
2018-05-17T05:28:15.642Z,444.00
2018-05-17T05:29:15.541Z,448.00
2018-05-17T05:30:15.498Z,452.00
2018-05-17T05:31:15.444Z,456.00
2018-05-17T05:32:15.351Z,460.00
2018-05-17T05:33:15.288Z,472.00
2018-05-17T05:34:15.248Z,480.00
2018-05-17T05:35:15.210Z,488.00
2018-05-17T05:36:15.158Z,488.00
2018-05-17T05:37:15.043Z,488.00
2018-05-17T05:38:15.013Z,480.00
2018-05-17T05:39:14.938Z,480.00
2018-05-17T05:40:14.878Z,480.00
2018-05-17T05:41:14.810Z,468.00
2018-05-17T05:42:14.738Z,480.00
2018-05-17T05:43:14.750Z,480.00
2018-05-17T05:44:14.609Z,484.00
2018-05-17T05:45:14.536Z,504.00
2018-05-17T05:46:14.467Z,528.00
2018-05-17T05:47:14.452Z,536.00
2018-05-17T05:48:14.390Z,544.00
2018-05-17T05:49:14.400Z,556.00
2018-05-17T05:50:14.251Z,568.00
2018-05-17T05:51:14.169Z,592.00
2018-05-17T05:52:14.129Z,624.00
2018-05-17T05:53:14.027Z,640.00
2018-05-17T05:54:13.963Z,664.00
2018-05-17T05:55:13.918Z,636.00
2018-05-17T05:56:13.905Z,660.00
2018-05-17T05:57:13.775Z,668.00
2018-05-17T05:58:13.718Z,664.00
2018-05-17T05:59:13.672Z,704.00
2018-05-17T06:00:13.625Z,728.00
2018-05-17T06:01:13.566Z,792.00
2018-05-17T06:02:13.515Z,888.00
2018-05-17T06:03:13.433Z,964.00
2018-05-17T06:04:13.374Z,1056.00
2018-05-17T06:05:13.268Z,1200.00
2018-05-17T06:06:13.242Z,1200.00
2018-05-17T06:07:13.146Z,1308.00
2018-05-17T06:08:13.141Z,1248.00
2018-05-17T06:09:13.048Z,1316.00
2018-05-17T06:10:12.972Z,1236.00
2018-05-17T06:11:12.897Z,1356.00
2018-05-17T06:12:12.846Z,1388.00
2018-05-17T06:13:12.815Z,1400.00
2018-05-17T06:14:12.705Z,1368.00
2018-05-17T06:15:12.645Z,1372.00
2018-05-17T06:16:12.583Z,1368.00
2018-05-17T06:17:12.537Z,1480.00
2018-05-17T06:18:12.462Z,1488.00
2018-05-17T06:19:12.393Z,1492.00
2018-05-17T06:20:12.325Z,1528.00
2018-05-17T06:21:12.264Z,1592.00
2018-05-17T06:22:12.862Z,1644.00
2018-05-17T06:23:12.173Z,1684.00
2018-05-17T06:24:12.085Z,1684.00
2018-05-17T06:25:12.014Z,1632.00
2018-05-17T06:26:11.951Z,1592.00
2018-05-17T06:27:11.888Z,1444.00
2018-05-17T06:28:11.825Z,1552.00
2018-05-17T06:29:11.814Z,1456.00
2018-05-17T06:30:11.700Z,1476.00
2018-05-17T06:31:11.658Z,1720.00
2018-05-17T06:32:11.640Z,1532.00
2018-05-17T06:33:11.537Z,1336.00
2018-05-17T06:34:11.453Z,1348.00
2018-05-17T06:35:11.418Z,1304.00
2018-05-17T06:36:11.330Z,1276.00
2018-05-17T06:37:11.310Z,1372.00
2018-05-17T06:38:11.251Z,1264.00
2018-05-17T06:39:11.140Z,1200.00
2018-05-17T06:40:11.143Z,1448.00
2018-05-17T06:41:11.039Z,1472.00
2018-05-17T06:42:10.986Z,1328.00
2018-05-17T06:43:10.919Z,1248.00
2018-05-17T06:44:10.830Z,1288.00
2018-05-17T06:45:10.833Z,1284.00
2018-05-17T06:46:10.736Z,1184.00
2018-05-17T06:47:10.642Z,1276.00
2018-05-17T06:48:10.615Z,1328.00
2018-05-17T06:49:18.454Z,1220.00
2018-05-17T06:50:10.452Z,1160.00
2018-05-17T06:51:10.434Z,1132.00
2018-05-17T06:52:10.354Z,1068.00
2018-05-17T06:53:10.268Z,1052.00
2018-05-17T06:54:10.202Z,1104.00
2018-05-17T06:55:10.141Z,1056.00
2018-05-17T06:56:10.130Z,1004.00
2018-05-17T06:57:10.023Z,916.00
2018-05-17T06:58:09.973Z,828.00
2018-05-17T06:59:09.914Z,764.00
2018-05-17T07:00:09.878Z,820.00
2018-05-17T07:01:09.790Z,780.00
2018-05-17T07:02:09.725Z,748.00
2018-05-17T07:03:09.700Z,740.00
2018-05-17T07:04:09.624Z,796.00
2018-05-17T07:05:09.582Z,912.00
2018-05-17T07:06:09.549Z,1052.00
2018-05-17T07:07:09.508Z,1124.00
2018-05-17T07:08:09.351Z,1068.00
2018-05-17T07:09:09.276Z,1132.00
2018-05-17T07:10:09.259Z,1224.00
2018-05-17T07:11:09.148Z,1316.00
2018-05-17T07:12:09.084Z,1468.00
2018-05-17T07:13:09.072Z,1476.00
2018-05-17T07:14:08.997Z,1428.00
2018-05-17T07:15:08.936Z,1288.00
2018-05-17T07:16:08.839Z,1100.00
2018-05-17T07:17:08.813Z,1144.00
2018-05-17T07:18:08.965Z,1140.00
2018-05-17T07:19:08.692Z,1216.00
2018-05-17T07:20:08.594Z,1316.00
2018-05-17T07:21:10.530Z,1472.00
2018-05-17T07:22:08.465Z,1372.00
2018-05-17T07:23:08.448Z,1380.00
2018-05-17T07:24:08.461Z,1696.00
2018-05-17T07:25:08.313Z,1864.00
2018-05-17T07:26:08.231Z,1972.00
2018-05-17T07:27:08.171Z,2072.00
2018-05-17T07:28:08.159Z,2220.00
2018-05-17T07:29:08.035Z,2364.00
2018-05-17T07:30:07.999Z,2484.00
2018-05-17T07:31:07.931Z,2688.00
2018-05-17T07:32:07.896Z,2752.00
2018-05-17T07:33:07.813Z,2856.00
2018-05-17T07:34:07.783Z,2716.00
2018-05-17T07:35:07.674Z,3124.00
2018-05-17T07:36:07.621Z,3228.00
2018-05-17T07:37:07.540Z,3260.00
2018-05-17T07:38:07.507Z,3520.00
2018-05-17T07:39:07.421Z,4532.00
2018-05-17T07:40:07.349Z,3756.00
2018-05-17T07:41:07.355Z,3992.00
2018-05-17T07:42:07.244Z,3948.00
2018-05-17T07:43:07.212Z,4268.00
2018-05-17T07:44:07.148Z,4196.00
2018-05-17T07:45:07.078Z,3704.00
2018-05-17T07:46:06.999Z,3500.00
2018-05-17T07:47:07.017Z,3544.00
2018-05-17T07:48:06.853Z,2964.00
2018-05-17T07:49:06.827Z,2752.00
2018-05-17T07:50:06.785Z,2612.00
2018-05-17T07:51:06.688Z,2660.00
2018-05-17T07:52:06.721Z,2632.00
2018-05-17T07:53:06.573Z,2432.00
2018-05-17T07:54:06.541Z,2328.00
2018-05-17T07:55:06.445Z,2268.00
2018-05-17T07:56:06.413Z,2140.00
2018-05-17T07:57:06.306Z,2028.00
2018-05-17T07:58:06.245Z,2060.00
2018-05-17T07:59:06.226Z,2140.00
2018-05-17T08:00:06.121Z,2180.00
2018-05-17T08:01:06.059Z,2168.00
2018-05-17T08:02:05.997Z,2208.00
2018-05-17T08:03:05.955Z,2200.00
2018-05-17T08:04:05.878Z,2172.00
2018-05-17T08:05:05.815Z,2072.00
2018-05-17T08:06:05.755Z,1848.00
2018-05-17T08:07:05.699Z,1744.00
2018-05-17T08:08:05.633Z,1932.00
2018-05-17T08:09:05.571Z,2132.00
2018-05-17T08:10:05.517Z,2296.00
2018-05-17T08:11:05.450Z,2204.00
2018-05-17T08:12:05.389Z,2220.00
2018-05-17T08:13:05.329Z,2292.00
2018-05-17T08:14:05.269Z,2416.00
2018-05-17T08:15:05.207Z,2464.00
2018-05-17T08:16:05.145Z,2580.00
2018-05-17T08:17:05.085Z,2404.00
2018-05-17T08:18:05.042Z,2072.00
2018-05-17T08:19:04.964Z,2016.00
2018-05-17T08:20:04.915Z,2240.00
2018-05-17T08:21:04.842Z,2420.00
2018-05-17T08:22:04.780Z,2416.00
2018-05-17T08:23:04.722Z,2376.00
2018-05-17T08:24:04.659Z,2300.00
2018-05-17T08:25:04.602Z,2236.00
2018-05-17T08:26:04.537Z,2124.00
2018-05-17T08:27:04.478Z,2084.00
2018-05-17T08:28:04.415Z,2000.00
2018-05-17T08:29:04.395Z,1980.00
2018-05-17T08:30:04.294Z,1880.00
2018-05-17T08:31:04.237Z,1924.00
2018-05-17T08:32:04.176Z,1964.00
2018-05-17T08:33:04.112Z,2096.00
2018-05-17T08:34:04.052Z,2268.00
2018-05-17T08:35:03.991Z,2348.00
2018-05-17T08:36:03.982Z,2340.00
2018-05-17T08:37:03.867Z,2320.00
2018-05-17T08:38:05.866Z,2272.00
2018-05-17T08:39:03.748Z,2184.00
2018-05-17T08:40:03.686Z,2204.00
2018-05-17T08:41:03.625Z,2000.00
2018-05-17T08:42:03.564Z,1640.00
2018-05-17T08:43:03.505Z,1284.00
2018-05-17T08:44:03.477Z,1144.00
2018-05-17T08:45:03.382Z,1100.00
2018-05-17T08:46:03.324Z,1164.00
2018-05-17T08:47:03.263Z,1500.00
2018-05-17T08:48:03.200Z,1868.00
2018-05-17T08:49:03.442Z,2060.00
2018-05-17T08:50:03.079Z,2340.00
2018-05-17T08:51:03.019Z,2504.00
2018-05-17T08:52:02.955Z,2368.00
2018-05-17T08:53:02.895Z,2356.00
2018-05-17T08:54:02.834Z,2388.00
2018-05-17T08:55:02.774Z,2388.00
2018-05-17T08:56:02.712Z,2388.00
2018-05-17T08:57:02.650Z,2580.00
2018-05-17T08:58:02.593Z,2768.00
2018-05-17T08:59:02.532Z,3056.00
2018-05-17T09:00:02.468Z,3316.00
2018-05-17T09:01:02.410Z,3492.00
2018-05-17T09:02:02.347Z,3512.00
2018-05-17T09:03:02.286Z,3788.00
2018-05-17T09:04:02.225Z,3984.00
2018-05-17T09:05:02.165Z,3916.00
2018-05-17T09:06:02.104Z,3920.00
2018-05-17T09:07:02.126Z,4060.00
2018-05-17T09:08:01.982Z,4016.00
2018-05-17T09:09:01.922Z,3940.00
2018-05-17T09:10:01.863Z,4012.00
2018-05-17T09:11:01.813Z,3960.00
2018-05-17T09:12:01.743Z,3816.00
2018-05-17T09:13:01.680Z,3736.00
2018-05-17T09:14:01.619Z,3820.00
2018-05-17T09:15:01.559Z,3692.00
2018-05-17T09:16:01.498Z,3188.00
2018-05-17T09:17:01.439Z,2804.00
2018-05-17T09:18:01.376Z,2636.00
2018-05-17T09:19:01.316Z,2724.00
2018-05-17T09:20:01.295Z,2792.00
2018-05-17T09:21:01.200Z,3104.00
2018-05-17T09:22:01.136Z,3440.00
2018-05-17T09:23:01.077Z,3488.00
2018-05-17T09:24:01.016Z,3484.00
2018-05-17T09:25:00.956Z,3496.00
2018-05-17T09:26:00.893Z,3556.00
2018-05-17T09:27:00.835Z,3516.00
2018-05-17T09:28:00.781Z,3568.00
2018-05-17T09:29:00.715Z,3552.00
2018-05-17T09:30:00.656Z,3612.00
2018-05-17T09:31:00.595Z,3520.00
2018-05-17T09:32:00.535Z,3428.00
2018-05-17T09:33:00.479Z,3264.00
2018-05-17T09:34:00.415Z,3152.00
2018-05-17T09:35:00.354Z,3240.00
2018-05-17T09:36:00.294Z,3936.00
2018-05-17T09:37:00.236Z,5680.00
2018-05-17T09:38:00.175Z,8044.00
2018-05-17T09:39:00.116Z,6292.00
2018-05-17T09:40:00.055Z,3524.00
2018-05-17T09:40:59.993Z,3320.00
2018-05-17T09:41:59.935Z,3092.00
2018-05-17T09:42:59.876Z,2844.00
2018-05-17T09:43:59.817Z,2576.00
2018-05-17T09:44:59.758Z,2392.00
2018-05-17T09:45:59.699Z,2356.00
2018-05-17T09:46:59.638Z,2480.00
2018-05-17T09:47:59.579Z,2432.00
2018-05-17T09:48:59.520Z,2432.00
2018-05-17T09:49:59.461Z,2364.00
2018-05-17T09:50:59.403Z,2308.00
2018-05-17T09:51:59.351Z,2528.00
2018-05-17T09:52:59.283Z,2480.00
2018-05-17T09:53:59.223Z,2280.00
2018-05-17T09:54:59.191Z,1896.00
2018-05-17T09:55:59.103Z,1696.00
2018-05-17T09:56:59.045Z,1672.00
2018-05-17T09:57:58.987Z,1696.00
2018-05-17T09:58:58.925Z,1720.00
2018-05-17T09:59:58.866Z,1868.00
2018-05-17T10:00:58.805Z,2200.00
2018-05-17T10:01:58.747Z,2504.00
2018-05-17T10:02:58.690Z,2556.00
2018-05-17T10:03:58.628Z,2644.00
2018-05-17T10:04:58.567Z,2888.00
2018-05-17T10:05:58.508Z,3180.00
2018-05-17T10:06:58.450Z,3480.00
2018-05-17T10:07:58.388Z,3700.00
2018-05-17T10:08:58.405Z,3900.00
2018-05-17T10:09:58.268Z,3976.00
2018-05-17T10:10:58.210Z,4016.00
2018-05-17T10:11:58.149Z,4024.00
2018-05-17T10:12:58.088Z,3948.00
2018-05-17T10:13:58.029Z,3864.00
2018-05-17T10:14:57.971Z,3948.00
2018-05-17T10:15:57.910Z,4300.00
2018-05-17T10:16:57.849Z,4660.00
2018-05-17T10:17:57.792Z,4972.00
2018-05-17T10:18:57.729Z,3684.00
2018-05-17T10:19:57.671Z,3812.00
2018-05-17T10:20:57.612Z,4416.00
2018-05-17T10:21:57.553Z,4572.00
2018-05-17T10:22:57.502Z,4572.00
2018-05-17T10:23:57.430Z,4472.00
2018-05-17T10:24:57.372Z,4252.00
2018-05-17T10:25:57.314Z,4120.00
2018-05-17T10:26:57.253Z,4116.00
2018-05-17T10:27:57.193Z,4508.00
2018-05-17T10:28:57.133Z,4792.00
2018-05-17T10:29:57.075Z,4856.00
2018-05-17T10:30:57.015Z,4780.00
2018-05-17T10:31:56.955Z,4900.00
2018-05-17T10:32:56.897Z,4652.00
2018-05-17T10:33:56.835Z,4456.00
2018-05-17T10:34:56.776Z,4408.00
2018-05-17T10:35:56.715Z,4452.00
2018-05-17T10:36:56.662Z,4464.00
2018-05-17T10:37:56.599Z,4412.00
2018-05-17T10:38:56.541Z,5072.00
2018-05-17T10:39:56.476Z,4472.00
2018-05-17T10:40:56.424Z,5232.00
2018-05-17T10:41:56.363Z,4772.00
2018-05-17T10:42:56.305Z,4340.00
2018-05-17T10:43:56.248Z,4104.00
2018-05-17T10:44:56.188Z,3952.00
2018-05-17T10:45:56.131Z,3892.00
2018-05-17T10:46:56.076Z,3872.00
2018-05-17T10:47:56.011Z,3688.00
2018-05-17T10:48:56.036Z,3624.00
2018-05-17T10:49:55.894Z,3604.00
2018-05-17T10:50:55.836Z,3916.00
2018-05-17T10:51:55.777Z,4384.00
2018-05-17T10:52:55.721Z,4124.00
2018-05-17T10:53:55.669Z,4252.00
2018-05-17T10:54:55.604Z,3440.00
2018-05-17T10:55:55.543Z,4480.00
2018-05-17T10:56:55.491Z,4844.00
2018-05-17T10:57:55.432Z,4828.00
2018-05-17T10:58:55.371Z,5536.00
2018-05-17T10:59:55.311Z,5728.00
2018-05-17T11:00:55.252Z,4660.00
2018-05-17T11:01:55.195Z,3636.00
2018-05-17T11:02:55.139Z,3168.00
2018-05-17T11:03:55.079Z,3040.00
2018-05-17T11:04:55.024Z,3388.00
2018-05-17T11:05:54.964Z,3968.00
2018-05-17T11:06:54.907Z,4924.00
2018-05-17T11:07:54.849Z,4552.00
2018-05-17T11:08:54.790Z,5228.00
2018-05-17T11:09:54.736Z,5616.00
2018-05-17T11:10:54.678Z,3916.00
2018-05-17T11:11:54.622Z,3404.00
2018-05-17T11:12:54.562Z,3108.00
2018-05-17T11:13:54.502Z,3284.00
2018-05-17T11:14:54.448Z,3572.00
2018-05-17T11:15:54.387Z,3952.00
2018-05-17T11:16:54.330Z,4064.00
2018-05-17T11:17:54.271Z,3736.00
2018-05-17T11:18:54.216Z,3520.00
2018-05-17T11:19:54.155Z,3148.00
2018-05-17T11:20:54.096Z,3552.00
2018-05-17T11:21:54.041Z,4204.00
2018-05-17T11:22:53.982Z,4516.00
2018-05-17T11:23:53.924Z,4216.00
2018-05-17T11:24:53.865Z,3468.00
2018-05-17T11:25:53.818Z,3152.00
2018-05-17T11:26:53.750Z,2472.00
2018-05-17T11:27:53.691Z,2456.00
2018-05-17T11:28:53.636Z,2412.00
2018-05-17T11:29:53.577Z,2584.00
2018-05-17T11:30:53.520Z,2732.00
2018-05-17T11:31:53.461Z,2820.00
2018-05-17T11:32:53.401Z,3112.00
2018-05-17T11:33:53.347Z,2992.00
2018-05-17T11:34:53.287Z,2604.00
2018-05-17T11:35:53.230Z,2824.00
2018-05-17T11:36:53.172Z,2904.00
2018-05-17T11:37:53.113Z,2640.00
2018-05-17T11:38:53.059Z,2900.00
2018-05-17T11:39:53.002Z,3028.00
2018-05-17T11:40:52.937Z,2656.00
2018-05-17T11:41:52.879Z,2828.00
2018-05-17T11:42:52.821Z,2680.00
2018-05-17T11:43:52.764Z,2096.00
2018-05-17T11:44:52.705Z,2296.00
2018-05-17T11:45:52.646Z,2800.00
2018-05-17T11:46:52.593Z,3284.00
2018-05-17T11:47:52.531Z,3396.00
2018-05-17T11:48:52.472Z,3324.00
2018-05-17T11:49:52.414Z,3356.00
2018-05-17T11:50:52.356Z,3384.00
2018-05-17T11:51:52.297Z,3376.00
2018-05-17T11:52:52.238Z,3352.00
2018-05-17T11:53:52.180Z,3120.00
2018-05-17T11:54:52.125Z,2792.00
2018-05-17T11:55:52.063Z,2364.00
2018-05-17T11:56:52.004Z,2312.00
2018-05-17T11:57:51.946Z,2444.00
2018-05-17T11:58:51.888Z,2844.00
2018-05-17T11:59:51.827Z,2940.00
2018-05-17T12:00:51.770Z,2620.00
2018-05-17T12:01:51.711Z,2324.00
2018-05-17T12:02:51.652Z,2504.00
2018-05-17T12:03:51.593Z,2476.00
2018-05-17T12:04:51.535Z,2256.00
2018-05-17T12:05:51.477Z,2000.00
2018-05-17T12:06:51.419Z,1648.00
2018-05-17T12:07:51.357Z,1532.00
2018-05-17T12:08:51.300Z,1412.00
2018-05-17T12:09:51.240Z,1288.00
2018-05-17T12:10:51.187Z,1228.00
2018-05-17T12:11:51.123Z,1148.00
2018-05-17T12:12:51.067Z,1052.00
2018-05-17T12:13:51.006Z,1032.00
2018-05-17T12:14:50.948Z,1152.00
2018-05-17T12:15:50.888Z,1272.00
2018-05-17T12:16:50.829Z,1468.00
2018-05-17T12:17:50.770Z,1800.00
2018-05-17T12:18:50.711Z,1976.00
2018-05-17T12:19:50.651Z,1900.00
2018-05-17T12:20:50.593Z,1716.00
2018-05-17T12:21:50.532Z,1684.00
2018-05-17T12:22:50.473Z,1812.00
2018-05-17T12:23:50.415Z,1980.00
2018-05-17T12:24:50.354Z,2104.00
2018-05-17T12:25:50.295Z,2116.00
2018-05-17T12:26:50.237Z,2132.00
2018-05-17T12:27:50.179Z,2252.00
2018-05-17T12:28:50.117Z,2316.00
2018-05-17T12:29:50.056Z,2312.00